KMEV

Minden-Tahoe Airport

Minden, Nevada, USA
METAR KMEV 160035Z AUTO 03003KT 10SM CLR 03/M06 A3007 RMK AO2
Observed Flight Rules
Dec-16 @ 00:35 UTC (41 minutes ago) Visual Flight Rules
Wind Visibility Clouds
30° at 3 knots 10 miles
  • Clear skies
Temperatures Readings
Current 3°C / 37°F
Dewpoint -6°C / 21°F
Humidity 52%
Altimeter 30.07" Hg
Pressure 1018 hPa
Elevation 1439
METAR KMEV 160035Z AUTO 03003KT 10SM CLR 03/M06 A3007 RMK AO2
Observed Flight Rules
Dec-16 @ 00:35 UTC
(41 minutes ago)
VFR
Wind Visibility
30° at 3 knots 10 miles
Clouds
  • Clear skies
Temperature Dewpoint
3°C / 37°F -6°C / 21°F
Humidity Altimeter Pressure
52% 30.07" Hg 1018 hPa